Terminal Aerodrome Forecast
Issued by NWS

Home | Current Version | Previous Version | Text Only | Print | Product List | Glossary Off
Versions: 1 2 3 4 5 6 7 8 9 10 11 12 13 14 15

000
FTUS43 KICT 131500 AAA
TAFSLN
TAF AMD
KSLN 131549Z 1316/1412 01017G24KT 6SM HZ SCT015 BKN030
     FM131800 36023G33KT P6SM SCT009 OVC015
     FM140500 36022G30KT 4SM -RASN BR OVC012
     FM140900 36020G30KT 4SM -SN BR OVC012=

USA.gov is the U.S. government's official web portal to all federal, state and local government web resources and services.